Amelia Ind Park, Puerto Rico
Current Conditions -  °F | °C
As of 12:56 PM on Thursday 30 Oct 2014 (Local Time) from TJSJ Reporting Station
Scattered Clouds Scattered Clouds  
Wind Chill: 87°   Ceiling: Unl
Heat Index: 99°   Visibility: 10mi
Dew Point: 77°   Wind: 8mph
Humidity: 72%   Direction: 320°NW
Pressure: 29.81"   Gusts: NA
Location:  18.3864°N, 66.1143°W
Report Text: TJSJ 301656Z 32007KT 10SM FEW032 SCT050 31/25 A2981 RMK AO2 SLP092 T03060250
Loading
Personal Weather Stations






























Interactive Weather Map
Tropical Storm Tracking
New forecast layout! Learn more

10-Day Weather Forecast

Advertisements
Track Severe Weather on mobile